createdAt,value
2018-12-01T00:03:32.216Z,8.07
2018-12-01T00:08:35.702Z,8.73
2018-12-01T00:13:39.189Z,7.60
2018-12-01T00:18:42.704Z,8.07
2018-12-01T00:23:49.187Z,6.33
2018-12-01T00:28:49.777Z,6.00
2018-12-01T00:33:53.263Z,6.50
2018-12-01T00:38:56.796Z,8.50
2018-12-01T00:44:00.307Z,7.42
2018-12-01T00:49:03.884Z,6.45
2018-12-01T00:54:07.418Z,6.30
2018-12-01T00:59:10.911Z,6.30
2018-12-01T01:04:14.431Z,7.20
2018-12-01T01:09:17.994Z,6.37
2018-12-01T01:14:21.496Z,6.23
2018-12-01T01:19:25.782Z,7.37
2018-12-01T01:24:29.423Z,6.20
2018-12-01T01:29:33.913Z,5.07
2018-12-01T01:34:37.882Z,5.80
2018-12-01T01:39:41.604Z,5.53
2018-12-01T01:44:45.487Z,5.93
2018-12-01T01:49:49.230Z,5.57
2018-12-01T01:54:53.016Z,4.57
2018-12-01T01:59:56.519Z,4.53
2018-12-01T02:05:00.264Z,5.12
2018-12-01T02:10:03.999Z,5.20
2018-12-01T02:15:08.641Z,4.33
2018-12-01T02:20:17.109Z,4.70
2018-12-01T02:25:20.710Z,4.00
2018-12-01T02:30:24.238Z,4.47
2018-12-01T02:35:28.754Z,3.77
2018-12-01T02:40:32.703Z,4.00
2018-12-01T02:45:47.700Z,5.47
2018-12-01T02:50:51.222Z,6.03
2018-12-01T02:55:54.901Z,6.00
2018-12-01T03:00:58.787Z,5.83
2018-12-01T03:06:02.549Z,7.40
2018-12-01T03:11:06.513Z,6.12
2018-12-01T03:16:10.775Z,6.80
2018-12-01T03:21:14.770Z,5.50
2018-12-01T03:26:18.617Z,5.97
2018-12-01T03:31:22.228Z,6.47
2018-12-01T03:36:26.922Z,5.90
2018-12-01T03:41:30.449Z,6.03
2018-12-01T03:46:34.642Z,6.47
2018-12-01T03:51:38.583Z,6.20
2018-12-01T03:56:43.118Z,5.78
2018-12-01T04:01:47.782Z,5.70
2018-12-01T04:06:51.276Z,5.90
2018-12-01T04:11:54.779Z,5.07
2018-12-01T04:16:58.270Z,5.47
2018-12-01T04:22:02.068Z,5.23
2018-12-01T04:27:05.785Z,5.00
2018-12-01T04:32:09.792Z,4.58
2018-12-01T04:37:13.794Z,4.37
2018-12-01T04:42:17.699Z,3.53
2018-12-01T04:47:21.430Z,3.90
2018-12-01T04:52:26.206Z,3.43
2018-12-01T04:57:30.128Z,3.40
2018-12-01T05:02:34.376Z,3.53
2018-12-01T05:07:37.885Z,3.53
2018-12-01T05:12:41.471Z,3.57
2018-12-01T05:17:45.343Z,3.97
2018-12-01T05:22:49.311Z,3.43
2018-12-01T05:27:53.925Z,3.33
2018-12-01T05:32:58.211Z,3.83
2018-12-01T05:38:02.497Z,4.23
2018-12-01T05:43:06.450Z,4.55
2018-12-01T05:48:09.963Z,4.50
2018-12-01T05:53:13.476Z,4.00
2018-12-01T05:58:17.074Z,3.60
2018-12-01T06:03:20.578Z,4.17
2018-12-01T06:08:24.299Z,4.60
2018-12-01T06:13:28.998Z,5.37
2018-12-01T06:18:32.894Z,4.97
2018-12-01T06:23:37.499Z,5.30
2018-12-01T06:28:41.001Z,5.30
2018-12-01T06:33:44.659Z,6.80
2018-12-01T06:38:48.298Z,5.27
2018-12-01T06:43:52.528Z,5.97
2018-12-01T06:48:56.344Z,6.70
2018-12-01T06:54:00.260Z,7.33
2018-12-01T06:59:04.548Z,6.00
2018-12-01T07:04:08.510Z,5.50
2018-12-01T07:09:12.533Z,5.50
2018-12-01T07:14:16.126Z,5.63
2018-12-01T07:19:19.833Z,5.28
2018-12-01T07:24:23.316Z,5.77
2018-12-01T07:29:26.935Z,5.00
2018-12-01T07:34:31.195Z,6.07
2018-12-01T07:39:35.450Z,5.65
2018-12-01T07:44:40.232Z,6.33
2018-12-01T07:49:43.962Z,5.70
2018-12-01T07:54:47.706Z,5.53
2018-12-01T07:59:51.376Z,5.57
2018-12-01T08:04:55.235Z,5.27
2018-12-01T08:09:59.238Z,5.58
2018-12-01T08:15:02.955Z,5.27
2018-12-01T08:20:10.222Z,6.50
2018-12-01T08:25:17.994Z,18.90
2018-12-01T08:30:25.746Z,9.17
2018-12-01T08:35:31.036Z,7.13
2018-12-01T08:40:35.857Z,8.13
2018-12-01T08:45:39.963Z,7.00
2018-12-01T08:50:43.571Z,8.60
2018-12-01T08:55:47.205Z,8.43
2018-12-01T09:00:51.056Z,10.63
2018-12-01T09:05:54.705Z,8.33
2018-12-01T09:10:59.034Z,7.20
2018-12-01T09:16:03.225Z,8.20
2018-12-01T09:21:07.767Z,8.73
2018-12-01T09:26:12.194Z,8.33
2018-12-01T09:31:16.170Z,7.80
2018-12-01T09:36:19.955Z,8.53
2018-12-01T09:41:23.551Z,6.87
2018-12-01T09:46:27.203Z,8.23
2018-12-01T09:51:31.074Z,7.90
2018-12-01T09:56:34.792Z,6.97
2018-12-01T10:01:38.443Z,6.53
2018-12-01T10:06:42.342Z,5.65
2018-12-01T10:11:50.499Z,5.30
2018-12-01T10:16:50.515Z,6.30
2018-12-01T10:21:54.914Z,6.50
2018-12-01T10:26:59.041Z,6.13
2018-12-01T10:32:03.411Z,6.60
2018-12-01T10:37:06.955Z,5.50
2018-12-01T10:42:10.749Z,5.60
2018-12-01T10:47:14.514Z,6.60
2018-12-01T10:52:18.960Z,5.20
2018-12-01T10:57:24.260Z,5.73
2018-12-01T11:02:32.321Z,5.10
2018-12-01T11:07:36.517Z,4.50
2018-12-01T11:12:40.416Z,5.37
2018-12-01T11:17:44.352Z,4.37
2018-12-01T11:22:48.008Z,4.30
2018-12-01T11:27:52.431Z,4.00
2018-12-01T11:32:57.458Z,4.43
2018-12-01T11:38:01.461Z,3.63
2018-12-01T11:43:06.356Z,3.97
2018-12-01T11:48:10.608Z,3.87
2018-12-01T11:53:14.090Z,3.13
2018-12-01T11:58:17.643Z,2.60
2018-12-01T12:03:21.368Z,2.63
2018-12-01T12:08:26.114Z,2.17
2018-12-01T12:13:29.771Z,2.23
2018-12-01T12:18:33.408Z,2.67
2018-12-01T12:23:37.057Z,2.27
2018-12-01T12:28:40.786Z,2.47
2018-12-01T12:33:44.407Z,2.40
2018-12-01T12:38:47.919Z,2.13
2018-12-01T12:43:51.430Z,2.13
2018-12-01T12:48:55.045Z,1.87
2018-12-01T12:53:58.737Z,1.90
2018-12-01T12:59:03.047Z,1.73
2018-12-01T13:04:07.773Z,1.60
2018-12-01T13:09:11.562Z,1.80
2018-12-01T13:14:15.082Z,1.35
2018-12-01T13:19:18.620Z,1.65
2018-12-01T13:24:22.211Z,1.43
2018-12-01T13:29:27.691Z,1.83
2018-12-01T13:34:31.402Z,1.80
2018-12-01T13:39:35.124Z,1.80
2018-12-01T13:44:38.941Z,1.82
2018-12-01T13:49:42.557Z,1.93
2018-12-01T13:54:46.139Z,1.57
2018-12-01T13:59:49.692Z,1.70
2018-12-01T14:04:53.179Z,1.33
2018-12-01T14:09:57.315Z,1.77
2018-12-01T14:15:01.343Z,1.30
2018-12-01T14:20:05.551Z,1.17
2018-12-01T14:25:10.423Z,1.77
2018-12-01T14:30:15.066Z,1.32
2018-12-01T14:35:32.678Z,1.20
2018-12-01T14:40:37.170Z,1.40
2018-12-01T14:45:41.396Z,1.30
2018-12-01T14:50:48.626Z,1.30
2018-12-01T14:55:48.641Z,1.30
2018-12-01T15:00:52.370Z,1.30
2018-12-01T15:05:56.043Z,1.20
2018-12-01T15:10:59.661Z,1.13
2018-12-01T15:16:05.069Z,1.10
2018-12-01T15:21:08.659Z,1.20
2018-12-01T15:26:12.219Z,1.35
2018-12-01T15:31:15.738Z,1.13
2018-12-01T15:36:19.368Z,1.30
2018-12-01T15:41:23.025Z,1.33
2018-12-01T15:46:31.884Z,1.60
2018-12-01T15:51:35.633Z,2.13
2018-12-01T15:56:39.441Z,1.37
2018-12-01T16:01:43.500Z,1.40
2018-12-01T16:06:47.077Z,1.40
2018-12-01T16:11:50.747Z,1.50
2018-12-01T16:16:54.475Z,1.77
2018-12-01T16:21:58.197Z,1.40
2018-12-01T16:27:02.419Z,1.60
2018-12-01T16:32:06.602Z,1.57
2018-12-01T16:37:10.429Z,1.80
2018-12-01T16:42:14.061Z,2.00
2018-12-01T16:47:17.893Z,1.90
2018-12-01T16:52:21.575Z,2.10
2018-12-01T16:57:25.130Z,2.23
2018-12-01T17:02:28.664Z,2.50
2018-12-01T17:07:32.583Z,2.70
2018-12-01T17:12:36.388Z,2.80
2018-12-01T17:17:40.203Z,2.70
2018-12-01T17:22:45.057Z,3.60
2018-12-01T17:27:49.503Z,2.77
2018-12-01T17:32:53.976Z,2.93
2018-12-01T17:37:59.891Z,2.50
2018-12-01T17:43:03.972Z,2.47
2018-12-01T17:48:08.122Z,3.17
2018-12-01T17:53:12.010Z,3.13
2018-12-01T17:58:16.418Z,3.13
2018-12-01T18:03:22.107Z,2.93
2018-12-01T18:08:25.807Z,2.83
2018-12-01T18:13:29.602Z,3.47
2018-12-01T18:18:33.153Z,3.03
2018-12-01T18:23:36.664Z,3.07
2018-12-01T18:28:49.979Z,3.22
2018-12-01T18:34:01.822Z,3.17
2018-12-01T18:39:09.947Z,2.80
2018-12-01T18:44:13.561Z,3.00
2018-12-01T18:49:17.235Z,3.30
2018-12-01T18:54:21.389Z,4.80
2018-12-01T18:59:25.157Z,2.83
2018-12-01T19:04:29.188Z,2.77
2018-12-01T19:09:33.551Z,3.00
2018-12-01T19:14:37.089Z,2.57
2018-12-01T19:19:40.785Z,2.33
2018-12-01T19:24:45.836Z,2.47
2018-12-01T19:29:49.720Z,2.47
2018-12-01T19:34:53.591Z,2.12
2018-12-01T19:39:57.367Z,2.53
2018-12-01T19:45:24.046Z,2.50
2018-12-01T19:50:36.757Z,2.60
2018-12-01T19:55:40.951Z,2.63
2018-12-01T20:00:46.832Z,9.53
2018-12-01T20:05:50.808Z,7.43
2018-12-01T20:11:02.925Z,7.20
2018-12-01T20:16:26.640Z,9.83
2018-12-01T20:21:30.528Z,10.57
2018-12-01T20:26:34.141Z,10.40
2018-12-01T20:31:37.634Z,10.00
2018-12-01T20:36:49.370Z,9.83
2018-12-01T20:41:53.068Z,6.07
2018-12-01T20:46:57.203Z,6.17
2018-12-01T20:52:01.342Z,4.97
2018-12-01T20:57:41.200Z,4.93
2018-12-01T21:02:45.338Z,4.83
2018-12-01T21:07:49.131Z,5.33
2018-12-01T21:12:53.285Z,4.60
2018-12-01T21:17:57.005Z,5.20
2018-12-01T21:23:02.065Z,4.87
2018-12-01T21:28:06.682Z,4.80
2018-12-01T21:33:16.137Z,4.33
2018-12-01T21:38:20.070Z,4.60
2018-12-01T21:43:25.937Z,4.95
2018-12-01T21:48:29.678Z,6.27
2018-12-01T21:53:33.706Z,8.07
2018-12-01T21:58:37.904Z,7.17
2018-12-01T22:03:41.922Z,6.63
2018-12-01T22:08:45.588Z,5.53
2018-12-01T22:13:49.653Z,6.07
2018-12-01T22:18:53.515Z,4.72
2018-12-01T22:23:57.367Z,4.80
2018-12-01T22:29:01.504Z,4.17
2018-12-01T22:34:05.772Z,4.80
2018-12-01T22:39:11.023Z,3.70
2018-12-01T22:44:14.875Z,3.52
2018-12-01T22:49:19.249Z,3.27
2018-12-01T22:54:22.808Z,3.60
2018-12-01T22:59:26.312Z,3.27
2018-12-01T23:04:29.780Z,3.37
2018-12-01T23:09:33.503Z,3.03
2018-12-01T23:14:38.052Z,2.70
2018-12-01T23:19:41.729Z,2.67
2018-12-01T23:24:45.414Z,2.87
2018-12-01T23:29:49.177Z,2.57
2018-12-01T23:34:53.341Z,2.40
2018-12-01T23:39:56.410Z,2.10
2018-12-01T23:44:59.882Z,2.80
2018-12-01T23:50:04.188Z,2.73
2018-12-01T23:55:10.359Z,2.60
